sensor_id;sensor_type;location;lat;lon;timestamp;temperature;humidity
3756;DHT22;1893;52.526;13.360;2023-02-19T00:00:55;5.40;99.90
3756;DHT22;1893;52.526;13.360;2023-02-19T00:03:21;5.50;99.90
3756;DHT22;1893;52.526;13.360;2023-02-19T00:05:47;5.50;99.90
3756;DHT22;1893;52.526;13.360;2023-02-19T00:08:12;5.50;99.90
3756;DHT22;1893;52.526;13.360;2023-02-19T00:10:38;5.50;99.90
3756;DHT22;1893;52.526;13.360;2023-02-19T00:13:04;5.60;99.90
3756;DHT22;1893;52.526;13.360;2023-02-19T00:15:32;5.50;99.90
3756;DHT22;1893;52.526;13.360;2023-02-19T00:17:58;5.50;99.90
3756;DHT22;1893;52.526;13.360;2023-02-19T00:20:24;5.50;99.90
3756;DHT22;1893;52.526;13.360;2023-02-19T00:22:49;5.50;99.90
3756;DHT22;1893;52.526;13.360;2023-02-19T00:25:15;5.50;99.90
3756;DHT22;1893;52.526;13.360;2023-02-19T00:27:41;5.50;99.90
3756;DHT22;1893;52.526;13.360;2023-02-19T00:30:07;5.40;99.90
3756;DHT22;1893;52.526;13.360;2023-02-19T00:32:33;5.40;99.90
3756;DHT22;1893;52.526;13.360;2023-02-19T00:34:58;5.40;99.90
3756;DHT22;1893;52.526;13.360;2023-02-19T00:37:24;5.40;99.90
3756;DHT22;1893;52.526;13.360;2023-02-19T00:39:49;5.40;99.90
3756;DHT22;1893;52.526;13.360;2023-02-19T00:42:15;5.40;99.90
3756;DHT22;1893;52.526;13.360;2023-02-19T00:44:41;5.40;99.90
3756;DHT22;1893;52.526;13.360;2023-02-19T00:47:06;5.40;99.90
3756;DHT22;1893;52.526;13.360;2023-02-19T00:49:32;5.40;99.90
3756;DHT22;1893;52.526;13.360;2023-02-19T00:51:57;5.40;99.90
3756;DHT22;1893;52.526;13.360;2023-02-19T00:54:23;5.40;99.90
3756;DHT22;1893;52.526;13.360;2023-02-19T00:56:49;5.40;99.90
3756;DHT22;1893;52.526;13.360;2023-02-19T00:59:15;5.40;99.90
3756;DHT22;1893;52.526;13.360;2023-02-19T01:01:41;5.40;99.90
3756;DHT22;1893;52.526;13.360;2023-02-19T01:04:08;5.40;99.90
3756;DHT22;1893;52.526;13.360;2023-02-19T01:06:34;5.40;99.90
3756;DHT22;1893;52.526;13.360;2023-02-19T01:09:00;5.40;99.90
3756;DHT22;1893;52.526;13.360;2023-02-19T01:11:26;5.40;99.90
3756;DHT22;1893;52.526;13.360;2023-02-19T01:13:55;5.40;99.90
3756;DHT22;1893;52.526;13.360;2023-02-19T01:16:21;5.40;99.90
3756;DHT22;1893;52.526;13.360;2023-02-19T01:18:49;5.40;99.90
3756;DHT22;1893;52.526;13.360;2023-02-19T01:21:18;5.50;99.90
3756;DHT22;1893;52.526;13.360;2023-02-19T01:23:44;5.50;99.90
3756;DHT22;1893;52.526;13.360;2023-02-19T01:26:15;5.40;99.90
3756;DHT22;1893;52.526;13.360;2023-02-19T01:28:41;5.40;99.90
3756;DHT22;1893;52.526;13.360;2023-02-19T01:31:10;5.40;99.90
3756;DHT22;1893;52.526;13.360;2023-02-19T01:33:36;5.50;99.90
3756;DHT22;1893;52.526;13.360;2023-02-19T01:36:03;5.50;99.90
3756;DHT22;1893;52.526;13.360;2023-02-19T01:38:29;5.40;99.90
3756;DHT22;1893;52.526;13.360;2023-02-19T01:40:56;5.30;99.90
3756;DHT22;1893;52.526;13.360;2023-02-19T01:43:22;5.20;99.90
3756;DHT22;1893;52.526;13.360;2023-02-19T01:45:47;5.10;99.90
3756;DHT22;1893;52.526;13.360;2023-02-19T01:50:57;5.10;99.90
3756;DHT22;1893;52.526;13.360;2023-02-19T01:53:29;5.00;99.90
3756;DHT22;1893;52.526;13.360;2023-02-19T01:55:58;5.00;99.90
3756;DHT22;1893;52.526;13.360;2023-02-19T01:58:28;5.00;99.90
3756;DHT22;1893;52.526;13.360;2023-02-19T02:00:54;5.10;99.90
3756;DHT22;1893;52.526;13.360;2023-02-19T02:03:20;5.00;99.90
3756;DHT22;1893;52.526;13.360;2023-02-19T02:05:55;5.00;99.90
3756;DHT22;1893;52.526;13.360;2023-02-19T02:08:22;5.00;99.90
3756;DHT22;1893;52.526;13.360;2023-02-19T02:11:07;5.00;99.90
3756;DHT22;1893;52.526;13.360;2023-02-19T02:13:33;5.10;99.90
3756;DHT22;1893;52.526;13.360;2023-02-19T02:16:21;4.90;99.90
3756;DHT22;1893;52.526;13.360;2023-02-19T02:27:05;4.80;99.90
3756;DHT22;1893;52.526;13.360;2023-02-19T02:32:49;4.80;99.90
3756;DHT22;1893;52.526;13.360;2023-02-19T02:35:25;4.90;99.90
3756;DHT22;1893;52.526;13.360;2023-02-19T02:37:54;4.80;99.90
3756;DHT22;1893;52.526;13.360;2023-02-19T02:40:21;4.80;99.90
3756;DHT22;1893;52.526;13.360;2023-02-19T02:42:47;4.80;99.90
3756;DHT22;1893;52.526;13.360;2023-02-19T02:45:30;4.80;99.90
3756;DHT22;1893;52.526;13.360;2023-02-19T02:48:05;4.80;99.90
3756;DHT22;1893;52.526;13.360;2023-02-19T02:50:41;4.90;99.90
3756;DHT22;1893;52.526;13.360;2023-02-19T02:53:12;4.90;99.90
3756;DHT22;1893;52.526;13.360;2023-02-19T02:55:58;4.90;99.90
3756;DHT22;1893;52.526;13.360;2023-02-19T02:58:26;4.90;99.90
3756;DHT22;1893;52.526;13.360;2023-02-19T03:01:06;4.90;99.90
3756;DHT22;1893;52.526;13.360;2023-02-19T03:03:56;4.80;99.90
3756;DHT22;1893;52.526;13.360;2023-02-19T03:06:25;4.70;99.90
3756;DHT22;1893;52.526;13.360;2023-02-19T03:09:00;4.70;99.90
3756;DHT22;1893;52.526;13.360;2023-02-19T03:11:30;4.70;99.90
3756;DHT22;1893;52.526;13.360;2023-02-19T03:14:19;4.60;99.90
3756;DHT22;1893;52.526;13.360;2023-02-19T03:17:16;4.50;99.90
3756;DHT22;1893;52.526;13.360;2023-02-19T03:20:06;4.50;99.90
3756;DHT22;1893;52.526;13.360;2023-02-19T03:22:35;4.50;99.90
3756;DHT22;1893;52.526;13.360;2023-02-19T03:25:16;4.50;99.90
3756;DHT22;1893;52.526;13.360;2023-02-19T03:28:04;4.40;99.90
3756;DHT22;1893;52.526;13.360;2023-02-19T03:30:34;4.50;99.90
3756;DHT22;1893;52.526;13.360;2023-02-19T03:35:35;4.30;99.90
3756;DHT22;1893;52.526;13.360;2023-02-19T03:38:16;4.30;99.90
3756;DHT22;1893;52.526;13.360;2023-02-19T03:43:33;4.10;99.90
3756;DHT22;1893;52.526;13.360;2023-02-19T03:46:21;4.00;99.90
3756;DHT22;1893;52.526;13.360;2023-02-19T03:48:53;3.80;99.90
3756;DHT22;1893;52.526;13.360;2023-02-19T03:54:12;3.70;99.90
3756;DHT22;1893;52.526;13.360;2023-02-19T03:56:55;3.60;99.90
3756;DHT22;1893;52.526;13.360;2023-02-19T03:59:32;3.60;99.90
3756;DHT22;1893;52.526;13.360;2023-02-19T04:02:08;3.50;99.90
3756;DHT22;1893;52.526;13.360;2023-02-19T04:04:41;3.50;99.90
3756;DHT22;1893;52.526;13.360;2023-02-19T04:07:08;3.50;99.90
3756;DHT22;1893;52.526;13.360;2023-02-19T04:09:42;3.60;99.90
3756;DHT22;1893;52.526;13.360;2023-02-19T04:12:10;3.60;99.90
3756;DHT22;1893;52.526;13.360;2023-02-19T04:17:35;3.60;99.90
3756;DHT22;1893;52.526;13.360;2023-02-19T04:20:06;3.60;99.90
3756;DHT22;1893;52.526;13.360;2023-02-19T04:22:33;3.60;99.90
3756;DHT22;1893;52.526;13.360;2023-02-19T04:24:59;3.70;99.90
3756;DHT22;1893;52.526;13.360;2023-02-19T04:27:25;3.60;99.90
3756;DHT22;1893;52.526;13.360;2023-02-19T04:29:51;3.50;99.90
3756;DHT22;1893;52.526;13.360;2023-02-19T04:32:16;3.50;99.90
3756;DHT22;1893;52.526;13.360;2023-02-19T04:34:42;3.60;99.90
3756;DHT22;1893;52.526;13.360;2023-02-19T04:37:08;3.60;99.90
3756;DHT22;1893;52.526;13.360;2023-02-19T04:39:33;3.60;99.90
3756;DHT22;1893;52.526;13.360;2023-02-19T04:41:59;3.50;99.90
3756;DHT22;1893;52.526;13.360;2023-02-19T04:44:24;3.40;99.90
3756;DHT22;1893;52.526;13.360;2023-02-19T04:46:50;3.30;99.90
3756;DHT22;1893;52.526;13.360;2023-02-19T04:49:15;3.20;99.90
3756;DHT22;1893;52.526;13.360;2023-02-19T04:51:41;3.20;99.90
3756;DHT22;1893;52.526;13.360;2023-02-19T04:54:07;3.30;99.90
3756;DHT22;1893;52.526;13.360;2023-02-19T04:56:32;3.30;99.90
3756;DHT22;1893;52.526;13.360;2023-02-19T04:58:58;3.30;99.90
3756;DHT22;1893;52.526;13.360;2023-02-19T05:01:24;3.30;99.90
3756;DHT22;1893;52.526;13.360;2023-02-19T05:03:50;3.50;99.90
3756;DHT22;1893;52.526;13.360;2023-02-19T05:06:16;3.30;99.90
3756;DHT22;1893;52.526;13.360;2023-02-19T05:08:42;3.20;99.90
3756;DHT22;1893;52.526;13.360;2023-02-19T05:11:09;3.20;99.90
3756;DHT22;1893;52.526;13.360;2023-02-19T05:13:35;3.20;99.90
3756;DHT22;1893;52.526;13.360;2023-02-19T05:16:04;3.20;99.90
3756;DHT22;1893;52.526;13.360;2023-02-19T05:18:32;3.10;99.90
3756;DHT22;1893;52.526;13.360;2023-02-19T05:20:59;3.10;99.90
3756;DHT22;1893;52.526;13.360;2023-02-19T05:23:25;3.10;99.90
3756;DHT22;1893;52.526;13.360;2023-02-19T05:25:51;3.10;99.90
3756;DHT22;1893;52.526;13.360;2023-02-19T05:28:17;3.10;99.90
3756;DHT22;1893;52.526;13.360;2023-02-19T05:30:48;3.10;99.90
3756;DHT22;1893;52.526;13.360;2023-02-19T05:33:15;3.10;99.90
3756;DHT22;1893;52.526;13.360;2023-02-19T05:35:47;3.10;99.90
3756;DHT22;1893;52.526;13.360;2023-02-19T05:38:14;3.10;99.90
3756;DHT22;1893;52.526;13.360;2023-02-19T05:40:40;3.10;99.90
3756;DHT22;1893;52.526;13.360;2023-02-19T05:43:06;3.10;99.90
3756;DHT22;1893;52.526;13.360;2023-02-19T05:45:32;3.00;99.90
3756;DHT22;1893;52.526;13.360;2023-02-19T05:47:58;3.00;99.90
3756;DHT22;1893;52.526;13.360;2023-02-19T05:50:24;2.90;99.90
3756;DHT22;1893;52.526;13.360;2023-02-19T05:52:49;2.90;99.90
3756;DHT22;1893;52.526;13.360;2023-02-19T05:55:15;2.90;99.90
3756;DHT22;1893;52.526;13.360;2023-02-19T05:57:43;2.90;99.90
3756;DHT22;1893;52.526;13.360;2023-02-19T06:00:14;2.90;99.90
3756;DHT22;1893;52.526;13.360;2023-02-19T06:02:41;2.90;99.90
3756;DHT22;1893;52.526;13.360;2023-02-19T06:05:07;2.90;99.90
3756;DHT22;1893;52.526;13.360;2023-02-19T06:07:33;2.90;99.90
3756;DHT22;1893;52.526;13.360;2023-02-19T06:09:59;3.00;99.90
3756;DHT22;1893;52.526;13.360;2023-02-19T06:12:24;2.90;99.90
3756;DHT22;1893;52.526;13.360;2023-02-19T06:14:50;3.00;99.90
3756;DHT22;1893;52.526;13.360;2023-02-19T06:17:16;2.90;99.90
3756;DHT22;1893;52.526;13.360;2023-02-19T06:19:42;2.90;99.90
3756;DHT22;1893;52.526;13.360;2023-02-19T06:22:08;2.90;99.90
3756;DHT22;1893;52.526;13.360;2023-02-19T06:24:33;2.90;99.90
3756;DHT22;1893;52.526;13.360;2023-02-19T06:27:00;3.00;99.90
3756;DHT22;1893;52.526;13.360;2023-02-19T06:29:26;3.00;99.90
3756;DHT22;1893;52.526;13.360;2023-02-19T06:31:51;3.00;99.90
3756;DHT22;1893;52.526;13.360;2023-02-19T06:34:17;2.90;99.90
3756;DHT22;1893;52.526;13.360;2023-02-19T06:36:42;2.90;99.90
3756;DHT22;1893;52.526;13.360;2023-02-19T06:39:09;2.90;99.90
3756;DHT22;1893;52.526;13.360;2023-02-19T06:41:35;3.00;99.90
3756;DHT22;1893;52.526;13.360;2023-02-19T06:44:00;2.90;99.90
3756;DHT22;1893;52.526;13.360;2023-02-19T06:46:26;2.80;99.90
3756;DHT22;1893;52.526;13.360;2023-02-19T06:48:52;2.90;99.90
3756;DHT22;1893;52.526;13.360;2023-02-19T06:51:18;2.80;99.90
3756;DHT22;1893;52.526;13.360;2023-02-19T06:53:48;2.70;99.90
3756;DHT22;1893;52.526;13.360;2023-02-19T06:58:54;2.80;99.90
3756;DHT22;1893;52.526;13.360;2023-02-19T07:01:20;2.80;99.90
3756;DHT22;1893;52.526;13.360;2023-02-19T07:03:46;2.80;99.90
3756;DHT22;1893;52.526;13.360;2023-02-19T07:06:12;3.00;99.90
3756;DHT22;1893;52.526;13.360;2023-02-19T07:08:37;2.90;99.90
3756;DHT22;1893;52.526;13.360;2023-02-19T07:11:03;3.00;99.90
3756;DHT22;1893;52.526;13.360;2023-02-19T07:13:29;2.90;99.90
3756;DHT22;1893;52.526;13.360;2023-02-19T07:16:00;3.00;99.90
3756;DHT22;1893;52.526;13.360;2023-02-19T07:18:27;3.20;99.90
3756;DHT22;1893;52.526;13.360;2023-02-19T07:20:52;3.10;99.90
3756;DHT22;1893;52.526;13.360;2023-02-19T07:23:18;3.20;99.90
3756;DHT22;1893;52.526;13.360;2023-02-19T07:25:43;3.10;99.90
3756;DHT22;1893;52.526;13.360;2023-02-19T07:28:09;3.30;99.90
3756;DHT22;1893;52.526;13.360;2023-02-19T07:30:35;3.20;99.90
3756;DHT22;1893;52.526;13.360;2023-02-19T07:33:01;3.10;99.90
3756;DHT22;1893;52.526;13.360;2023-02-19T07:35:26;3.30;99.90
3756;DHT22;1893;52.526;13.360;2023-02-19T07:37:52;3.40;99.90
3756;DHT22;1893;52.526;13.360;2023-02-19T07:40:17;3.30;99.90
3756;DHT22;1893;52.526;13.360;2023-02-19T07:42:43;3.10;99.90
3756;DHT22;1893;52.526;13.360;2023-02-19T07:45:09;3.10;99.90
3756;DHT22;1893;52.526;13.360;2023-02-19T07:47:34;3.10;99.90
3756;DHT22;1893;52.526;13.360;2023-02-19T07:50:00;3.20;99.90
3756;DHT22;1893;52.526;13.360;2023-02-19T07:52:26;3.30;99.90
3756;DHT22;1893;52.526;13.360;2023-02-19T07:54:52;3.20;99.90
3756;DHT22;1893;52.526;13.360;2023-02-19T07:57:18;3.30;99.90
3756;DHT22;1893;52.526;13.360;2023-02-19T07:59:43;3.70;99.90
3756;DHT22;1893;52.526;13.360;2023-02-19T08:02:19;3.60;99.90
3756;DHT22;1893;52.526;13.360;2023-02-19T08:05:04;3.40;99.90
3756;DHT22;1893;52.526;13.360;2023-02-19T08:07:34;3.50;99.90
3756;DHT22;1893;52.526;13.360;2023-02-19T08:10:01;3.60;99.90
3756;DHT22;1893;52.526;13.360;2023-02-19T08:12:57;3.60;99.90
3756;DHT22;1893;52.526;13.360;2023-02-19T08:15:41;3.80;99.90
3756;DHT22;1893;52.526;13.360;2023-02-19T08:18:08;3.90;99.90
3756;DHT22;1893;52.526;13.360;2023-02-19T08:20:33;3.90;99.90
3756;DHT22;1893;52.526;13.360;2023-02-19T08:22:59;3.90;99.90
3756;DHT22;1893;52.526;13.360;2023-02-19T08:25:25;3.70;99.90
3756;DHT22;1893;52.526;13.360;2023-02-19T08:27:50;3.80;99.90
3756;DHT22;1893;52.526;13.360;2023-02-19T08:30:16;3.70;99.90
3756;DHT22;1893;52.526;13.360;2023-02-19T08:32:41;3.90;99.90
3756;DHT22;1893;52.526;13.360;2023-02-19T08:35:07;4.00;99.90
3756;DHT22;1893;52.526;13.360;2023-02-19T08:37:33;4.30;99.90
3756;DHT22;1893;52.526;13.360;2023-02-19T08:39:58;4.20;99.90
3756;DHT22;1893;52.526;13.360;2023-02-19T08:42:24;4.50;99.90
3756;DHT22;1893;52.526;13.360;2023-02-19T08:44:49;4.70;99.90
3756;DHT22;1893;52.526;13.360;2023-02-19T08:47:15;4.60;99.90
3756;DHT22;1893;52.526;13.360;2023-02-19T08:49:40;4.80;99.90
3756;DHT22;1893;52.526;13.360;2023-02-19T08:52:06;5.30;99.90
3756;DHT22;1893;52.526;13.360;2023-02-19T08:54:32;5.30;99.90
3756;DHT22;1893;52.526;13.360;2023-02-19T08:56:57;5.60;99.90
3756;DHT22;1893;52.526;13.360;2023-02-19T08:59:23;5.60;99.90
3756;DHT22;1893;52.526;13.360;2023-02-19T09:01:48;5.20;99.90
3756;DHT22;1893;52.526;13.360;2023-02-19T09:04:14;5.10;99.90
3756;DHT22;1893;52.526;13.360;2023-02-19T09:06:39;5.10;99.90
3756;DHT22;1893;52.526;13.360;2023-02-19T09:09:05;5.40;99.90
3756;DHT22;1893;52.526;13.360;2023-02-19T09:11:31;5.60;99.90
3756;DHT22;1893;52.526;13.360;2023-02-19T09:13:56;5.60;99.90
3756;DHT22;1893;52.526;13.360;2023-02-19T09:16:22;5.70;99.90
3756;DHT22;1893;52.526;13.360;2023-02-19T09:18:47;5.90;99.90
3756;DHT22;1893;52.526;13.360;2023-02-19T09:21:13;6.00;99.90
3756;DHT22;1893;52.526;13.360;2023-02-19T09:23:39;6.00;99.90
3756;DHT22;1893;52.526;13.360;2023-02-19T09:26:05;5.60;99.90
3756;DHT22;1893;52.526;13.360;2023-02-19T09:28:33;5.60;99.90
3756;DHT22;1893;52.526;13.360;2023-02-19T09:31:06;6.00;99.90
3756;DHT22;1893;52.526;13.360;2023-02-19T09:33:35;5.70;99.90
3756;DHT22;1893;52.526;13.360;2023-02-19T09:36:02;5.60;99.90
3756;DHT22;1893;52.526;13.360;2023-02-19T09:38:28;5.80;99.90
3756;DHT22;1893;52.526;13.360;2023-02-19T09:40:58;5.60;99.90
3756;DHT22;1893;52.526;13.360;2023-02-19T09:43:30;5.70;99.90
3756;DHT22;1893;52.526;13.360;2023-02-19T09:47:02;6.40;99.90
3756;DHT22;1893;52.526;13.360;2023-02-19T09:51:31;6.50;99.90
3756;DHT22;1893;52.526;13.360;2023-02-19T09:53:56;6.20;99.90
3756;DHT22;1893;52.526;13.360;2023-02-19T09:56:24;6.30;99.90
3756;DHT22;1893;52.526;13.360;2023-02-19T09:58:53;7.10;99.90
3756;DHT22;1893;52.526;13.360;2023-02-19T10:01:21;6.80;99.90
3756;DHT22;1893;52.526;13.360;2023-02-19T10:03:48;7.40;99.90
3756;DHT22;1893;52.526;13.360;2023-02-19T10:06:22;7.20;99.90
3756;DHT22;1893;52.526;13.360;2023-02-19T10:08:51;6.70;99.90
3756;DHT22;1893;52.526;13.360;2023-02-19T10:11:18;6.20;99.90
3756;DHT22;1893;52.526;13.360;2023-02-19T10:13:50;6.80;99.90
3756;DHT22;1893;52.526;13.360;2023-02-19T10:16:24;7.50;99.90
3756;DHT22;1893;52.526;13.360;2023-02-19T10:18:51;6.90;99.90
3756;DHT22;1893;52.526;13.360;2023-02-19T10:21:20;7.20;99.90
3756;DHT22;1893;52.526;13.360;2023-02-19T10:23:50;6.90;99.90
3756;DHT22;1893;52.526;13.360;2023-02-19T10:26:18;7.30;99.90
3756;DHT22;1893;52.526;13.360;2023-02-19T10:28:44;6.60;99.90
3756;DHT22;1893;52.526;13.360;2023-02-19T10:31:18;6.70;99.90
3756;DHT22;1893;52.526;13.360;2023-02-19T10:33:56;7.30;99.90
3756;DHT22;1893;52.526;13.360;2023-02-19T10:39:01;8.00;99.90
3756;DHT22;1893;52.526;13.360;2023-02-19T10:41:27;7.60;99.90
3756;DHT22;1893;52.526;13.360;2023-02-19T10:44:13;7.70;99.90
3756;DHT22;1893;52.526;13.360;2023-02-19T10:46:48;7.70;99.90
3756;DHT22;1893;52.526;13.360;2023-02-19T10:49:37;7.50;99.90
3756;DHT22;1893;52.526;13.360;2023-02-19T10:52:31;7.90;99.90
3756;DHT22;1893;52.526;13.360;2023-02-19T10:57:55;8.80;99.90
3756;DHT22;1893;52.526;13.360;2023-02-19T11:00:24;8.40;99.90
3756;DHT22;1893;52.526;13.360;2023-02-19T11:03:13;7.80;99.90
3756;DHT22;1893;52.526;13.360;2023-02-19T11:05:43;7.20;99.90
3756;DHT22;1893;52.526;13.360;2023-02-19T11:08:21;6.90;99.90
3756;DHT22;1893;52.526;13.360;2023-02-19T11:10:47;7.10;99.90
3756;DHT22;1893;52.526;13.360;2023-02-19T11:13:17;7.50;99.90
3756;DHT22;1893;52.526;13.360;2023-02-19T11:15:50;7.60;99.90
3756;DHT22;1893;52.526;13.360;2023-02-19T11:18:33;7.60;99.90
3756;DHT22;1893;52.526;13.360;2023-02-19T11:21:04;7.70;99.90
3756;DHT22;1893;52.526;13.360;2023-02-19T11:23:34;8.60;99.90
3756;DHT22;1893;52.526;13.360;2023-02-19T11:26:04;8.50;99.90
3756;DHT22;1893;52.526;13.360;2023-02-19T11:28:31;7.80;99.90
3756;DHT22;1893;52.526;13.360;2023-02-19T11:36:36;9.10;99.90
3756;DHT22;1893;52.526;13.360;2023-02-19T11:39:19;9.80;99.90
3756;DHT22;1893;52.526;13.360;2023-02-19T11:49:55;7.10;99.90
3756;DHT22;1893;52.526;13.360;2023-02-19T11:58:02;10.20;99.90
3756;DHT22;1893;52.526;13.360;2023-02-19T12:00:56;11.20;99.90
3756;DHT22;1893;52.526;13.360;2023-02-19T12:07:12;13.40;99.90
3756;DHT22;1893;52.526;13.360;2023-02-19T12:09:52;12.10;99.90
3756;DHT22;1893;52.526;13.360;2023-02-19T12:12:39;11.20;99.90
3756;DHT22;1893;52.526;13.360;2023-02-19T12:15:31;10.70;99.90
3756;DHT22;1893;52.526;13.360;2023-02-19T12:18:15;10.30;99.90
3756;DHT22;1893;52.526;13.360;2023-02-19T12:27:10;10.40;99.90
3756;DHT22;1893;52.526;13.360;2023-02-19T12:30:05;10.10;99.90
3756;DHT22;1893;52.526;13.360;2023-02-19T12:45:51;9.60;99.90
3756;DHT22;1893;52.526;13.360;2023-02-19T12:50:59;9.90;99.90
3756;DHT22;1893;52.526;13.360;2023-02-19T12:53:45;10.00;99.90
3756;DHT22;1893;52.526;13.360;2023-02-19T12:56:18;10.30;99.90
3756;DHT22;1893;52.526;13.360;2023-02-19T12:58:49;9.80;99.90
3756;DHT22;1893;52.526;13.360;2023-02-19T13:01:24;9.50;99.90
3756;DHT22;1893;52.526;13.360;2023-02-19T13:04:17;10.10;99.90
3756;DHT22;1893;52.526;13.360;2023-02-19T13:06:58;9.70;99.90
3756;DHT22;1893;52.526;13.360;2023-02-19T13:10:00;8.70;99.90
3756;DHT22;1893;52.526;13.360;2023-02-19T13:12:31;7.30;99.90
3756;DHT22;1893;52.526;13.360;2023-02-19T13:15:16;8.30;99.90
3756;DHT22;1893;52.526;13.360;2023-02-19T13:17:54;9.60;99.90
3756;DHT22;1893;52.526;13.360;2023-02-19T13:20:35;10.00;99.90
3756;DHT22;1893;52.526;13.360;2023-02-19T13:23:35;10.50;99.90
3756;DHT22;1893;52.526;13.360;2023-02-19T13:26:53;10.60;99.90
3756;DHT22;1893;52.526;13.360;2023-02-19T13:29:47;10.30;99.90
3756;DHT22;1893;52.526;13.360;2023-02-19T13:37:47;12.30;99.90
3756;DHT22;1893;52.526;13.360;2023-02-19T13:42:59;9.20;99.90
3756;DHT22;1893;52.526;13.360;2023-02-19T13:45:39;7.70;99.90
3756;DHT22;1893;52.526;13.360;2023-02-19T14:14:51;8.00;99.90
3756;DHT22;1893;52.526;13.360;2023-02-19T14:22:45;7.00;99.90
3756;DHT22;1893;52.526;13.360;2023-02-19T14:25:28;7.20;99.90
3756;DHT22;1893;52.526;13.360;2023-02-19T14:28:27;7.80;99.90
3756;DHT22;1893;52.526;13.360;2023-02-19T14:30:58;8.50;99.90
3756;DHT22;1893;52.526;13.360;2023-02-19T14:33:33;8.50;99.90
3756;DHT22;1893;52.526;13.360;2023-02-19T14:36:16;8.30;99.90
3756;DHT22;1893;52.526;13.360;2023-02-19T14:38:52;8.30;99.90
3756;DHT22;1893;52.526;13.360;2023-02-19T14:41:20;7.70;99.90
3756;DHT22;1893;52.526;13.360;2023-02-19T14:43:49;7.50;99.90
3756;DHT22;1893;52.526;13.360;2023-02-19T14:46:27;7.10;99.90
3756;DHT22;1893;52.526;13.360;2023-02-19T14:48:54;7.00;99.90
3756;DHT22;1893;52.526;13.360;2023-02-19T14:51:40;6.80;99.90
3756;DHT22;1893;52.526;13.360;2023-02-19T14:56:58;6.70;99.90
3756;DHT22;1893;52.526;13.360;2023-02-19T15:02:13;6.50;99.90
3756;DHT22;1893;52.526;13.360;2023-02-19T15:04:38;6.50;99.90
3756;DHT22;1893;52.526;13.360;2023-02-19T15:07:09;6.50;99.90
3756;DHT22;1893;52.526;13.360;2023-02-19T15:09:43;6.40;99.90
3756;DHT22;1893;52.526;13.360;2023-02-19T15:12:20;6.40;99.90
3756;DHT22;1893;52.526;13.360;2023-02-19T15:14:48;6.40;99.90
3756;DHT22;1893;52.526;13.360;2023-02-19T15:17:22;6.30;99.90
3756;DHT22;1893;52.526;13.360;2023-02-19T15:19:49;6.40;99.90
3756;DHT22;1893;52.526;13.360;2023-02-19T15:22:19;6.40;99.90
3756;DHT22;1893;52.526;13.360;2023-02-19T15:24:46;6.30;99.90
3756;DHT22;1893;52.526;13.360;2023-02-19T15:27:20;6.20;99.90
3756;DHT22;1893;52.526;13.360;2023-02-19T15:29:48;6.20;99.90
3756;DHT22;1893;52.526;13.360;2023-02-19T15:32:23;6.10;99.90
3756;DHT22;1893;52.526;13.360;2023-02-19T15:34:58;6.00;99.90
3756;DHT22;1893;52.526;13.360;2023-02-19T15:37:30;6.10;99.90
3756;DHT22;1893;52.526;13.360;2023-02-19T15:39:59;6.00;99.90
3756;DHT22;1893;52.526;13.360;2023-02-19T15:42:29;6.00;99.90
3756;DHT22;1893;52.526;13.360;2023-02-19T15:45:13;5.90;99.90
3756;DHT22;1893;52.526;13.360;2023-02-19T15:47:48;5.80;99.90
3756;DHT22;1893;52.526;13.360;2023-02-19T15:50:21;5.80;99.90
3756;DHT22;1893;52.526;13.360;2023-02-19T15:53:11;5.70;99.90
3756;DHT22;1893;52.526;13.360;2023-02-19T15:55:42;5.70;99.90
3756;DHT22;1893;52.526;13.360;2023-02-19T16:00:49;5.60;99.90
3756;DHT22;1893;52.526;13.360;2023-02-19T16:03:21;5.60;99.90
3756;DHT22;1893;52.526;13.360;2023-02-19T16:06:07;5.60;99.90
3756;DHT22;1893;52.526;13.360;2023-02-19T16:08:40;5.60;99.90
3756;DHT22;1893;52.526;13.360;2023-02-19T16:11:25;5.50;99.90
3756;DHT22;1893;52.526;13.360;2023-02-19T16:16:54;5.50;99.90
3756;DHT22;1893;52.526;13.360;2023-02-19T16:19:26;5.50;99.90
3756;DHT22;1893;52.526;13.360;2023-02-19T16:21:53;5.40;99.90
3756;DHT22;1893;52.526;13.360;2023-02-19T16:26:50;5.40;99.90
3756;DHT22;1893;52.526;13.360;2023-02-19T16:29:19;5.40;99.90
3756;DHT22;1893;52.526;13.360;2023-02-19T16:31:54;5.30;99.90
3756;DHT22;1893;52.526;13.360;2023-02-19T16:34:44;5.20;99.90
3756;DHT22;1893;52.526;13.360;2023-02-19T16:45:17;5.00;99.90
3756;DHT22;1893;52.526;13.360;2023-02-19T16:47:43;5.00;99.90
3756;DHT22;1893;52.526;13.360;2023-02-19T16:50:19;5.20;99.90
3756;DHT22;1893;52.526;13.360;2023-02-19T16:52:56;5.00;99.90
3756;DHT22;1893;52.526;13.360;2023-02-19T16:55:23;5.00;99.90
3756;DHT22;1893;52.526;13.360;2023-02-19T16:57:48;5.00;99.90
3756;DHT22;1893;52.526;13.360;2023-02-19T17:00:22;4.90;99.90
3756;DHT22;1893;52.526;13.360;2023-02-19T17:02:51;4.90;99.90
3756;DHT22;1893;52.526;13.360;2023-02-19T17:05:18;4.90;99.90
3756;DHT22;1893;52.526;13.360;2023-02-19T17:07:44;4.90;99.90
3756;DHT22;1893;52.526;13.360;2023-02-19T17:10:13;4.80;99.90
3756;DHT22;1893;52.526;13.360;2023-02-19T17:12:40;4.80;99.90
3756;DHT22;1893;52.526;13.360;2023-02-19T17:15:06;4.80;99.90
3756;DHT22;1893;52.526;13.360;2023-02-19T17:17:31;4.80;99.90
3756;DHT22;1893;52.526;13.360;2023-02-19T17:19:57;4.80;99.90
3756;DHT22;1893;52.526;13.360;2023-02-19T17:22:22;4.80;99.90
3756;DHT22;1893;52.526;13.360;2023-02-19T17:24:48;4.80;99.90
3756;DHT22;1893;52.526;13.360;2023-02-19T17:27:14;4.80;99.90
3756;DHT22;1893;52.526;13.360;2023-02-19T17:29:39;4.70;99.90
3756;DHT22;1893;52.526;13.360;2023-02-19T17:32:05;4.70;99.90
3756;DHT22;1893;52.526;13.360;2023-02-19T17:34:31;4.70;99.90
3756;DHT22;1893;52.526;13.360;2023-02-19T17:36:57;4.70;99.90
3756;DHT22;1893;52.526;13.360;2023-02-19T17:39:22;4.70;99.90
3756;DHT22;1893;52.526;13.360;2023-02-19T17:41:49;4.70;99.90
3756;DHT22;1893;52.526;13.360;2023-02-19T17:44:15;4.60;99.90
3756;DHT22;1893;52.526;13.360;2023-02-19T17:46:41;4.60;99.90
3756;DHT22;1893;52.526;13.360;2023-02-19T17:49:06;4.80;99.90
3756;DHT22;1893;52.526;13.360;2023-02-19T17:51:33;4.70;99.90
3756;DHT22;1893;52.526;13.360;2023-02-19T17:53:59;4.80;99.90
3756;DHT22;1893;52.526;13.360;2023-02-19T17:56:26;4.80;99.90
3756;DHT22;1893;52.526;13.360;2023-02-19T17:58:56;4.80;99.90
3756;DHT22;1893;52.526;13.360;2023-02-19T18:01:23;4.70;99.90
3756;DHT22;1893;52.526;13.360;2023-02-19T18:03:49;4.80;99.90
3756;DHT22;1893;52.526;13.360;2023-02-19T18:06:14;4.80;99.90
3756;DHT22;1893;52.526;13.360;2023-02-19T18:08:46;4.80;99.90
3756;DHT22;1893;52.526;13.360;2023-02-19T18:11:12;4.70;99.90
3756;DHT22;1893;52.526;13.360;2023-02-19T18:13:37;4.80;99.90
3756;DHT22;1893;52.526;13.360;2023-02-19T18:16:04;4.70;99.90
3756;DHT22;1893;52.526;13.360;2023-02-19T18:18:30;4.60;99.90
3756;DHT22;1893;52.526;13.360;2023-02-19T18:20:55;4.70;99.90
3756;DHT22;1893;52.526;13.360;2023-02-19T18:23:21;4.70;99.90
3756;DHT22;1893;52.526;13.360;2023-02-19T18:25:47;4.70;99.90
3756;DHT22;1893;52.526;13.360;2023-02-19T18:28:12;4.70;99.90
3756;DHT22;1893;52.526;13.360;2023-02-19T18:30:39;4.70;99.90
3756;DHT22;1893;52.526;13.360;2023-02-19T18:33:04;4.60;99.90
3756;DHT22;1893;52.526;13.360;2023-02-19T18:35:30;4.60;99.90
3756;DHT22;1893;52.526;13.360;2023-02-19T18:37:56;4.60;99.90
3756;DHT22;1893;52.526;13.360;2023-02-19T18:40:22;4.50;99.90
3756;DHT22;1893;52.526;13.360;2023-02-19T18:42:50;4.60;99.90
3756;DHT22;1893;52.526;13.360;2023-02-19T18:45:16;4.50;99.90